Detroit Lakes, MN (56501)

5:46 AM CST on February 14, 2016 (GMT -0600)
Detroit Lakes | | Change Station
CLOSE
Current Station
Personal Weather Station
Location: Detroit Lakes, MN
Elevation: 1358 ft
Nearby Weather Stations

Elev 1358 ft 46.81 °N, 95.82 °W | Updated 2 seconds ago

Light Snow
Light Snow
10.0 °F
Feels Like -4 °F
N
10.3
Wind Variable Wind from SE
Gusts 12.3 mph

Today
High -- | Low -- °F
--% Chance of Precip.
Yesterday
High -- | Low -- °F
Precip. -- in
Pressure 29.94 in
Visibility 7.0 miles
Clouds Mostly Cloudy 900 ft
Windchill -4 °F
Dew Point -2 °F
Humidity 57%
Rainfall 0.00 in
Snow Depth Not available.
7:29 AM 5:46 PM
Waxing Crescent, 41% visible
METAR KDTL 141135Z AUTO 15012G18KT 7SM -SN BKN009 M11/M14 A2994 RMK AO2
Pressure 29.94 in
Visibility 7.0 miles
Clouds Mostly Cloudy 900 ft
Windchill -4 °F
Dew Point -2 °F
Humidity 57%
Rainfall 0.00 in
Snow Depth Not available.
7:29 AM 5:46 PM
Waxing Crescent, 41% visible
METAR KDTL 141135Z AUTO 15012G18KT 7SM -SN BKN009 M11/M14 A2994 RMK AO2

10-Day Weather Forecast

Almanac

Astronomy

Feb. 14, 2016 Rise Set
Actual Time
Civil Twilight
Nautical Twilight
Astronomical Twilight
Moon
Length of Visible Light
Length of Day
Tomorrow will be .
, % of the Moon is Illuminated

Today's Extremes

State Highs State Lows

Community

WunderPhotos

Upload Photos

1,892,766 photos uploaded!

WunderBlog® & News

Nearby

Air Quality

  Air Quality AQ Index Pollutant
Not available.

Snow Depth

Station Depth Elevation

Earthquake Activity

City Distance Mag. Time & Date
Minimum magnitude displayed is 2.5.

Coastal Water Temperatures

Place Temperature

Stations

Nearby Weather Stations

Station Location Temp. Windchill Dew Point Humidity Wind Precip. Elev Updated Type
                   

Watches & Warnings

There are currently no watches in effect.